sensor_id;sensor_type;location;lat;lon;timestamp;pressure;altitude;pressure_sealevel;temperature;humidity
61357;BME280;47227;46.752;23.576;2024-01-16T00:01:04;94779.98;;;-0.54;73.01
61357;BME280;47227;46.752;23.576;2024-01-16T00:03:45;94797.80;;;-0.52;72.91
61357;BME280;47227;46.752;23.576;2024-01-16T00:06:13;94803.08;;;-0.51;72.90
61357;BME280;47227;46.752;23.576;2024-01-16T00:08:42;94797.82;;;-0.50;72.74
61357;BME280;47227;46.752;23.576;2024-01-16T00:11:11;94793.60;;;-0.49;72.39
61357;BME280;47227;46.752;23.576;2024-01-16T00:13:42;94801.49;;;-0.49;72.82
61357;BME280;47227;46.752;23.576;2024-01-16T00:16:10;94807.58;;;-0.49;73.40
61357;BME280;47227;46.752;23.576;2024-01-16T00:18:39;94819.38;;;-0.47;73.16
61357;BME280;47227;46.752;23.576;2024-01-16T00:21:07;94830.64;;;-0.46;73.19
61357;BME280;47227;46.752;23.576;2024-01-16T00:23:36;94837.48;;;-0.46;72.97
61357;BME280;47227;46.752;23.576;2024-01-16T00:26:04;94839.86;;;-0.48;72.99
61357;BME280;47227;46.752;23.576;2024-01-16T00:28:33;94837.81;;;-0.47;72.74
61357;BME280;47227;46.752;23.576;2024-01-16T00:31:07;94839.81;;;-0.46;72.95
61357;BME280;47227;46.752;23.576;2024-01-16T00:33:36;94853.17;;;-0.43;72.76
61357;BME280;47227;46.752;23.576;2024-01-16T00:36:05;94862.30;;;-0.39;72.74
61357;BME280;47227;46.752;23.576;2024-01-16T00:38:34;94862.02;;;-0.35;72.71
61357;BME280;47227;46.752;23.576;2024-01-16T00:41:03;94868.27;;;-0.31;73.04
61357;BME280;47227;46.752;23.576;2024-01-16T00:43:31;94873.02;;;-0.29;74.63
61357;BME280;47227;46.752;23.576;2024-01-16T00:45:59;94877.31;;;-0.28;75.13
61357;BME280;47227;46.752;23.576;2024-01-16T00:48:28;94875.98;;;-0.26;73.00
61357;BME280;47227;46.752;23.576;2024-01-16T00:50:56;94877.88;;;-0.19;72.29
61357;BME280;47227;46.752;23.576;2024-01-16T00:53:26;94884.81;;;-0.12;71.90
61357;BME280;47227;46.752;23.576;2024-01-16T00:55:55;94883.71;;;-0.08;72.42
61357;BME280;47227;46.752;23.576;2024-01-16T00:58:23;94878.21;;;-0.03;73.05
61357;BME280;47227;46.752;23.576;2024-01-16T01:00:52;94876.15;;;-0.04;73.82
61357;BME280;47227;46.752;23.576;2024-01-16T01:03:21;94874.61;;;-0.04;73.74
61357;BME280;47227;46.752;23.576;2024-01-16T01:05:50;94868.58;;;-0.11;75.60
61357;BME280;47227;46.752;23.576;2024-01-16T01:08:18;94869.94;;;-0.14;75.64
61357;BME280;47227;46.752;23.576;2024-01-16T01:10:47;94876.54;;;-0.19;75.47
61357;BME280;47227;46.752;23.576;2024-01-16T01:13:15;94894.63;;;-0.20;74.64
61357;BME280;47227;46.752;23.576;2024-01-16T01:15:44;94895.57;;;-0.21;74.74
61357;BME280;47227;46.752;23.576;2024-01-16T01:18:12;94896.39;;;-0.23;74.45
61357;BME280;47227;46.752;23.576;2024-01-16T01:20:41;94901.65;;;-0.26;74.30
61357;BME280;47227;46.752;23.576;2024-01-16T01:23:10;94909.63;;;-0.28;73.99
61357;BME280;47227;46.752;23.576;2024-01-16T01:25:39;94912.55;;;-0.32;73.83
61357;BME280;47227;46.752;23.576;2024-01-16T01:28:07;94910.89;;;-0.36;73.62
61357;BME280;47227;46.752;23.576;2024-01-16T01:30:36;94914.95;;;-0.41;74.18
61357;BME280;47227;46.752;23.576;2024-01-16T01:33:05;94922.41;;;-0.47;74.18
61357;BME280;47227;46.752;23.576;2024-01-16T01:35:34;94934.95;;;-0.51;74.15
61357;BME280;47227;46.752;23.576;2024-01-16T01:38:02;94944.09;;;-0.53;73.94
61357;BME280;47227;46.752;23.576;2024-01-16T01:40:31;94942.30;;;-0.58;74.27
61357;BME280;47227;46.752;23.576;2024-01-16T01:43:18;94934.48;;;-0.61;74.45
61357;BME280;47227;46.752;23.576;2024-01-16T01:46:12;94922.34;;;-0.64;74.52
61357;BME280;47227;46.752;23.576;2024-01-16T01:48:42;94911.14;;;-0.69;74.89
61357;BME280;47227;46.752;23.576;2024-01-16T01:51:12;94915.11;;;-0.72;74.15
61357;BME280;47227;46.752;23.576;2024-01-16T01:53:43;94919.64;;;-0.74;74.04
61357;BME280;47227;46.752;23.576;2024-01-16T01:56:14;94927.86;;;-0.78;74.61
61357;BME280;47227;46.752;23.576;2024-01-16T01:58:46;94930.35;;;-0.83;75.19
61357;BME280;47227;46.752;23.576;2024-01-16T02:01:17;94936.23;;;-0.85;75.85
61357;BME280;47227;46.752;23.576;2024-01-16T02:03:49;94934.52;;;-0.88;75.81
61357;BME280;47227;46.752;23.576;2024-01-16T02:06:18;94929.23;;;-0.91;75.37
61357;BME280;47227;46.752;23.576;2024-01-16T02:08:46;94929.95;;;-0.94;75.80
61357;BME280;47227;46.752;23.576;2024-01-16T02:11:15;94936.64;;;-0.99;75.38
61357;BME280;47227;46.752;23.576;2024-01-16T02:13:44;94938.38;;;-1.04;76.05
61357;BME280;47227;46.752;23.576;2024-01-16T02:18:47;94948.85;;;-1.15;76.28
61357;BME280;47227;46.752;23.576;2024-01-16T02:21:18;94944.81;;;-1.21;75.69
61357;BME280;47227;46.752;23.576;2024-01-16T02:23:48;94960.02;;;-1.24;75.73
61357;BME280;47227;46.752;23.576;2024-01-16T02:26:18;94964.66;;;-1.27;76.63
61357;BME280;47227;46.752;23.576;2024-01-16T02:28:48;94964.98;;;-1.29;75.85
61357;BME280;47227;46.752;23.576;2024-01-16T02:31:16;94960.48;;;-1.33;76.38
61357;BME280;47227;46.752;23.576;2024-01-16T02:33:46;94953.10;;;-1.36;77.31
61357;BME280;47227;46.752;23.576;2024-01-16T02:36:14;94944.42;;;-1.39;77.33
61357;BME280;47227;46.752;23.576;2024-01-16T02:38:43;94948.89;;;-1.41;76.88
61357;BME280;47227;46.752;23.576;2024-01-16T02:41:14;94948.91;;;-1.44;76.14
61357;BME280;47227;46.752;23.576;2024-01-16T02:43:44;94956.71;;;-1.47;76.24
61357;BME280;47227;46.752;23.576;2024-01-16T02:46:16;94960.41;;;-1.52;76.28
61357;BME280;47227;46.752;23.576;2024-01-16T02:48:44;94961.88;;;-1.56;76.02
61357;BME280;47227;46.752;23.576;2024-01-16T02:51:13;94964.15;;;-1.57;75.51
61357;BME280;47227;46.752;23.576;2024-01-16T02:53:42;94967.17;;;-1.58;75.80
61357;BME280;47227;46.752;23.576;2024-01-16T02:56:10;94982.38;;;-1.56;75.51
61357;BME280;47227;46.752;23.576;2024-01-16T02:58:39;94990.09;;;-1.54;75.40
61357;BME280;47227;46.752;23.576;2024-01-16T03:01:07;94996.71;;;-1.49;75.55
61357;BME280;47227;46.752;23.576;2024-01-16T03:03:36;95001.61;;;-1.43;75.53
61357;BME280;47227;46.752;23.576;2024-01-16T03:06:04;95006.42;;;-1.38;75.27
61357;BME280;47227;46.752;23.576;2024-01-16T03:08:33;95012.02;;;-1.35;75.14
61357;BME280;47227;46.752;23.576;2024-01-16T03:11:02;95013.90;;;-1.33;74.93
61357;BME280;47227;46.752;23.576;2024-01-16T03:13:31;95020.89;;;-1.28;74.99
61357;BME280;47227;46.752;23.576;2024-01-16T03:15:59;95020.00;;;-1.24;74.58
61357;BME280;47227;46.752;23.576;2024-01-16T03:18:28;95023.63;;;-1.24;74.00
61357;BME280;47227;46.752;23.576;2024-01-16T03:20:58;95021.61;;;-1.28;73.90
61357;BME280;47227;46.752;23.576;2024-01-16T03:23:27;95016.31;;;-1.32;73.64
61357;BME280;47227;46.752;23.576;2024-01-16T03:25:56;95017.52;;;-1.34;73.61
61357;BME280;47227;46.752;23.576;2024-01-16T03:28:25;95015.27;;;-1.38;73.44
61357;BME280;47227;46.752;23.576;2024-01-16T03:30:54;95016.96;;;-1.44;73.65
61357;BME280;47227;46.752;23.576;2024-01-16T03:33:23;95004.44;;;-1.53;73.51
61357;BME280;47227;46.752;23.576;2024-01-16T03:35:52;94992.84;;;-1.60;73.56
61357;BME280;47227;46.752;23.576;2024-01-16T03:38:20;95006.14;;;-1.66;73.51
61357;BME280;47227;46.752;23.576;2024-01-16T03:40:49;95018.14;;;-1.71;73.56
61357;BME280;47227;46.752;23.576;2024-01-16T03:43:18;95026.66;;;-1.79;73.62
61357;BME280;47227;46.752;23.576;2024-01-16T03:45:46;95031.11;;;-1.88;74.22
61357;BME280;47227;46.752;23.576;2024-01-16T03:48:15;95031.78;;;-1.93;74.00
61357;BME280;47227;46.752;23.576;2024-01-16T03:50:44;95029.48;;;-2.02;74.59
61357;BME280;47227;46.752;23.576;2024-01-16T03:53:13;95019.92;;;-2.04;74.50
61357;BME280;47227;46.752;23.576;2024-01-16T03:55:42;95012.54;;;-2.08;74.18
61357;BME280;47227;46.752;23.576;2024-01-16T03:58:10;95010.29;;;-2.12;74.13
61357;BME280;47227;46.752;23.576;2024-01-16T04:00:40;95014.69;;;-2.17;74.22
61357;BME280;47227;46.752;23.576;2024-01-16T04:03:09;95020.54;;;-2.24;74.56
61357;BME280;47227;46.752;23.576;2024-01-16T04:05:38;95038.27;;;-2.27;74.51
61357;BME280;47227;46.752;23.576;2024-01-16T04:08:06;95044.75;;;-2.31;74.10
61357;BME280;47227;46.752;23.576;2024-01-16T04:10:35;95050.67;;;-2.36;74.33
61357;BME280;47227;46.752;23.576;2024-01-16T04:13:05;95058.45;;;-2.41;74.07
61357;BME280;47227;46.752;23.576;2024-01-16T04:15:37;95063.54;;;-2.44;74.05
61357;BME280;47227;46.752;23.576;2024-01-16T04:18:06;95071.91;;;-2.46;74.25
61357;BME280;47227;46.752;23.576;2024-01-16T04:20:35;95073.93;;;-2.47;74.54
61357;BME280;47227;46.752;23.576;2024-01-16T04:23:04;95075.23;;;-2.47;74.37
61357;BME280;47227;46.752;23.576;2024-01-16T04:25:32;95085.38;;;-2.47;74.79
61357;BME280;47227;46.752;23.576;2024-01-16T04:28:01;95089.96;;;-2.41;74.51
61357;BME280;47227;46.752;23.576;2024-01-16T04:30:30;95097.12;;;-2.39;74.47
61357;BME280;47227;46.752;23.576;2024-01-16T04:32:58;95096.56;;;-2.35;74.39
61357;BME280;47227;46.752;23.576;2024-01-16T04:35:27;95102.80;;;-2.32;74.18
61357;BME280;47227;46.752;23.576;2024-01-16T04:37:56;95102.55;;;-2.32;73.42
61357;BME280;47227;46.752;23.576;2024-01-16T04:40:24;95107.18;;;-2.28;72.96
61357;BME280;47227;46.752;23.576;2024-01-16T04:42:53;95115.09;;;-2.24;72.62
61357;BME280;47227;46.752;23.576;2024-01-16T04:45:21;95115.98;;;-2.27;71.35
61357;BME280;47227;46.752;23.576;2024-01-16T04:47:50;95122.03;;;-2.28;71.25
61357;BME280;47227;46.752;23.576;2024-01-16T04:50:18;95118.11;;;-2.28;71.17
61357;BME280;47227;46.752;23.576;2024-01-16T04:52:47;95117.33;;;-2.30;70.90
61357;BME280;47227;46.752;23.576;2024-01-16T04:55:18;95125.89;;;-2.34;71.11
61357;BME280;47227;46.752;23.576;2024-01-16T04:57:46;95129.53;;;-2.37;71.10
61357;BME280;47227;46.752;23.576;2024-01-16T05:00:15;95135.52;;;-2.42;70.97
61357;BME280;47227;46.752;23.576;2024-01-16T05:02:43;95135.15;;;-2.46;71.39
61357;BME280;47227;46.752;23.576;2024-01-16T05:05:12;95139.71;;;-2.52;71.30
61357;BME280;47227;46.752;23.576;2024-01-16T05:07:41;95140.73;;;-2.64;71.66
61357;BME280;47227;46.752;23.576;2024-01-16T05:10:11;95143.02;;;-2.71;71.85
61357;BME280;47227;46.752;23.576;2024-01-16T05:12:43;95151.95;;;-2.76;71.73
61357;BME280;47227;46.752;23.576;2024-01-16T05:15:11;95153.15;;;-2.83;72.01
61357;BME280;47227;46.752;23.576;2024-01-16T05:17:40;95161.34;;;-2.87;71.80
61357;BME280;47227;46.752;23.576;2024-01-16T05:20:09;95166.82;;;-2.90;71.78
61357;BME280;47227;46.752;23.576;2024-01-16T05:22:38;95170.43;;;-2.93;71.86
61357;BME280;47227;46.752;23.576;2024-01-16T05:25:07;95178.45;;;-2.93;71.91
61357;BME280;47227;46.752;23.576;2024-01-16T05:27:36;95178.13;;;-2.93;71.69
61357;BME280;47227;46.752;23.576;2024-01-16T05:30:05;95187.91;;;-2.92;71.74
61357;BME280;47227;46.752;23.576;2024-01-16T05:32:35;95183.33;;;-2.94;72.22
61357;BME280;47227;46.752;23.576;2024-01-16T05:35:04;95186.17;;;-2.94;71.97
61357;BME280;47227;46.752;23.576;2024-01-16T05:37:32;95188.70;;;-2.93;72.02
61357;BME280;47227;46.752;23.576;2024-01-16T05:40:01;95192.86;;;-2.92;72.04
61357;BME280;47227;46.752;23.576;2024-01-16T05:42:31;95189.96;;;-2.89;72.08
61357;BME280;47227;46.752;23.576;2024-01-16T05:44:59;95196.36;;;-2.86;71.99
61357;BME280;47227;46.752;23.576;2024-01-16T05:47:28;95196.65;;;-2.82;72.06
61357;BME280;47227;46.752;23.576;2024-01-16T05:49:59;95199.36;;;-2.76;72.06
61357;BME280;47227;46.752;23.576;2024-01-16T05:52:27;95206.92;;;-2.74;72.00
61357;BME280;47227;46.752;23.576;2024-01-16T05:54:56;95210.55;;;-2.73;71.90
61357;BME280;47227;46.752;23.576;2024-01-16T05:57:26;95216.52;;;-2.71;71.84
61357;BME280;47227;46.752;23.576;2024-01-16T05:59:55;95223.41;;;-2.70;71.87
61357;BME280;47227;46.752;23.576;2024-01-16T06:02:23;95227.11;;;-2.70;71.87
61357;BME280;47227;46.752;23.576;2024-01-16T06:04:52;95230.72;;;-2.69;71.80
61357;BME280;47227;46.752;23.576;2024-01-16T06:07:21;95231.65;;;-2.64;71.79
61357;BME280;47227;46.752;23.576;2024-01-16T06:09:49;95235.78;;;-2.58;71.86
61357;BME280;47227;46.752;23.576;2024-01-16T06:12:18;95235.91;;;-2.53;71.35
61357;BME280;47227;46.752;23.576;2024-01-16T06:14:47;95238.77;;;-2.43;70.50
61357;BME280;47227;46.752;23.576;2024-01-16T06:17:15;95241.80;;;-2.34;69.73
61357;BME280;47227;46.752;23.576;2024-01-16T06:19:44;95240.71;;;-2.31;69.54
61357;BME280;47227;46.752;23.576;2024-01-16T06:22:12;95242.47;;;-2.27;69.37
61357;BME280;47227;46.752;23.576;2024-01-16T06:24:41;95245.38;;;-2.23;69.17
61357;BME280;47227;46.752;23.576;2024-01-16T06:27:09;95246.92;;;-2.19;69.07
61357;BME280;47227;46.752;23.576;2024-01-16T06:29:38;95258.83;;;-2.17;68.49
61357;BME280;47227;46.752;23.576;2024-01-16T06:32:06;95260.09;;;-2.14;68.06
61357;BME280;47227;46.752;23.576;2024-01-16T06:34:35;95263.73;;;-2.13;67.91
61357;BME280;47227;46.752;23.576;2024-01-16T06:37:04;95262.63;;;-2.11;67.88
61357;BME280;47227;46.752;23.576;2024-01-16T06:39:32;95271.28;;;-2.11;67.90
61357;BME280;47227;46.752;23.576;2024-01-16T06:42:01;95271.25;;;-2.10;67.93
61357;BME280;47227;46.752;23.576;2024-01-16T06:44:36;95282.95;;;-2.11;67.87
61357;BME280;47227;46.752;23.576;2024-01-16T06:47:05;95284.60;;;-2.12;67.95
61357;BME280;47227;46.752;23.576;2024-01-16T06:49:33;95289.99;;;-2.18;67.67
61357;BME280;47227;46.752;23.576;2024-01-16T06:52:03;95298.41;;;-2.20;67.88
61357;BME280;47227;46.752;23.576;2024-01-16T06:54:31;95305.91;;;-2.20;67.96
61357;BME280;47227;46.752;23.576;2024-01-16T06:57:00;95314.69;;;-2.20;68.04
61357;BME280;47227;46.752;23.576;2024-01-16T06:59:29;95318.13;;;-2.20;68.08
61357;BME280;47227;46.752;23.576;2024-01-16T07:01:57;95323.89;;;-2.21;68.19
61357;BME280;47227;46.752;23.576;2024-01-16T07:04:26;95325.66;;;-2.21;67.89
61357;BME280;47227;46.752;23.576;2024-01-16T07:06:54;95328.44;;;-2.22;67.96
61357;BME280;47227;46.752;23.576;2024-01-16T07:09:23;95333.11;;;-2.18;68.14
61357;BME280;47227;46.752;23.576;2024-01-16T07:11:51;95337.63;;;-2.14;67.89
61357;BME280;47227;46.752;23.576;2024-01-16T07:14:20;95344.25;;;-2.11;68.18
61357;BME280;47227;46.752;23.576;2024-01-16T07:16:49;95349.55;;;-2.11;67.74
61357;BME280;47227;46.752;23.576;2024-01-16T07:19:18;95352.04;;;-2.09;67.55
61357;BME280;47227;46.752;23.576;2024-01-16T07:21:46;95353.13;;;-2.06;67.19
61357;BME280;47227;46.752;23.576;2024-01-16T07:24:15;95350.16;;;-2.05;67.38
61357;BME280;47227;46.752;23.576;2024-01-16T07:26:43;95352.39;;;-2.03;67.40
61357;BME280;47227;46.752;23.576;2024-01-16T07:29:12;95353.98;;;-2.02;67.59
61357;BME280;47227;46.752;23.576;2024-01-16T07:31:40;95363.10;;;-2.02;67.34
61357;BME280;47227;46.752;23.576;2024-01-16T07:34:09;95364.02;;;-2.01;67.10
61357;BME280;47227;46.752;23.576;2024-01-16T07:36:38;95371.06;;;-1.99;67.13
61357;BME280;47227;46.752;23.576;2024-01-16T07:39:06;95374.39;;;-1.97;67.13
61357;BME280;47227;46.752;23.576;2024-01-16T07:41:34;95377.41;;;-1.95;66.68
61357;BME280;47227;46.752;23.576;2024-01-16T07:44:04;95379.55;;;-1.92;66.88
61357;BME280;47227;46.752;23.576;2024-01-16T07:46:33;95378.03;;;-1.90;67.03
61357;BME280;47227;46.752;23.576;2024-01-16T07:49:01;95382.98;;;-1.87;66.69
61357;BME280;47227;46.752;23.576;2024-01-16T07:51:29;95384.77;;;-1.83;66.65
61357;BME280;47227;46.752;23.576;2024-01-16T07:54:06;95384.04;;;-1.78;66.50
61357;BME280;47227;46.752;23.576;2024-01-16T07:56:55;95396.26;;;-1.72;66.01
61357;BME280;47227;46.752;23.576;2024-01-16T07:59:24;95400.63;;;-1.66;65.35
61357;BME280;47227;46.752;23.576;2024-01-16T08:01:52;95401.71;;;-1.60;65.07
61357;BME280;47227;46.752;23.576;2024-01-16T08:04:21;95406.23;;;-1.54;64.40
61357;BME280;47227;46.752;23.576;2024-01-16T08:06:50;95411.50;;;-1.44;63.71
61357;BME280;47227;46.752;23.576;2024-01-16T08:09:18;95414.69;;;-1.36;63.44
61357;BME280;47227;46.752;23.576;2024-01-16T08:11:48;95421.33;;;-1.28;63.45
61357;BME280;47227;46.752;23.576;2024-01-16T08:14:17;95428.11;;;-1.18;62.17
61357;BME280;47227;46.752;23.576;2024-01-16T08:16:45;95428.05;;;-1.10;61.90
61357;BME280;47227;46.752;23.576;2024-01-16T08:19:14;95426.33;;;-1.04;61.94
61357;BME280;47227;46.752;23.576;2024-01-16T08:21:43;95434.53;;;-0.97;61.48
61357;BME280;47227;46.752;23.576;2024-01-16T08:24:11;95434.86;;;-0.95;62.88
61357;BME280;47227;46.752;23.576;2024-01-16T08:26:40;95442.39;;;-0.95;63.45
61357;BME280;47227;46.752;23.576;2024-01-16T08:29:09;95439.77;;;-0.94;63.36
61357;BME280;47227;46.752;23.576;2024-01-16T08:31:37;95445.95;;;-0.90;63.53
61357;BME280;47227;46.752;23.576;2024-01-16T08:34:06;95451.95;;;-0.85;63.18
61357;BME280;47227;46.752;23.576;2024-01-16T08:36:35;95453.77;;;-0.82;62.71
61357;BME280;47227;46.752;23.576;2024-01-16T08:39:03;95456.27;;;-0.79;62.19
61357;BME280;47227;46.752;23.576;2024-01-16T08:41:31;95465.78;;;-0.75;61.17
61357;BME280;47227;46.752;23.576;2024-01-16T08:44:00;95474.95;;;-0.71;60.00
61357;BME280;47227;46.752;23.576;2024-01-16T08:46:28;95477.83;;;-0.67;58.79
61357;BME280;47227;46.752;23.576;2024-01-16T08:48:57;95483.61;;;-0.63;58.20
61357;BME280;47227;46.752;23.576;2024-01-16T08:51:26;95476.63;;;-0.58;58.44
61357;BME280;47227;46.752;23.576;2024-01-16T08:53:54;95483.15;;;-0.53;57.48
61357;BME280;47227;46.752;23.576;2024-01-16T08:56:23;95488.95;;;-0.48;57.63
61357;BME280;47227;46.752;23.576;2024-01-16T08:58:51;95492.09;;;-0.44;55.94
61357;BME280;47227;46.752;23.576;2024-01-16T09:01:19;95501.59;;;-0.40;55.70
61357;BME280;47227;46.752;23.576;2024-01-16T09:03:49;95504.54;;;-0.36;55.07
61357;BME280;47227;46.752;23.576;2024-01-16T09:06:17;95516.39;;;-0.34;54.58
61357;BME280;47227;46.752;23.576;2024-01-16T09:08:46;95500.96;;;-0.31;54.91
61357;BME280;47227;46.752;23.576;2024-01-16T09:11:15;95503.49;;;-0.28;55.26
61357;BME280;47227;46.752;23.576;2024-01-16T09:13:43;95508.58;;;-0.23;55.76
61357;BME280;47227;46.752;23.576;2024-01-16T09:16:13;95499.41;;;-0.20;54.43
61357;BME280;47227;46.752;23.576;2024-01-16T09:18:41;95500.33;;;-0.17;55.02
61357;BME280;47227;46.752;23.576;2024-01-16T09:21:10;95510.89;;;-0.15;55.06
61357;BME280;47227;46.752;23.576;2024-01-16T09:23:38;95510.20;;;-0.14;55.24
61357;BME280;47227;46.752;23.576;2024-01-16T09:26:07;95506.73;;;-0.12;55.12
61357;BME280;47227;46.752;23.576;2024-01-16T09:28:35;95509.45;;;-0.12;55.69
61357;BME280;47227;46.752;23.576;2024-01-16T09:31:05;95515.24;;;-0.10;55.73
61357;BME280;47227;46.752;23.576;2024-01-16T09:33:34;95515.60;;;-0.08;55.86
61357;BME280;47227;46.752;23.576;2024-01-16T09:36:04;95518.89;;;-0.05;55.81
61357;BME280;47227;46.752;23.576;2024-01-16T09:38:32;95520.05;;;-0.06;55.36
61357;BME280;47227;46.752;23.576;2024-01-16T09:41:01;95513.61;;;-0.07;55.54
61357;BME280;47227;46.752;23.576;2024-01-16T09:43:32;95520.98;;;-0.06;55.78
61357;BME280;47227;46.752;23.576;2024-01-16T09:46:04;95514.05;;;-0.04;55.59
61357;BME280;47227;46.752;23.576;2024-01-16T09:48:34;95517.17;;;-0.02;55.85
61357;BME280;47227;46.752;23.576;2024-01-16T09:51:03;95514.84;;;0.08;56.17
61357;BME280;47227;46.752;23.576;2024-01-16T09:53:31;95517.20;;;0.41;55.40
61357;BME280;47227;46.752;23.576;2024-01-16T09:56:02;95513.61;;;1.14;53.77
61357;BME280;47227;46.752;23.576;2024-01-16T09:58:34;95508.48;;;2.20;51.77
61357;BME280;47227;46.752;23.576;2024-01-16T10:01:05;95519.73;;;3.38;47.38
61357;BME280;47227;46.752;23.576;2024-01-16T10:03:35;95516.09;;;4.19;45.63
61357;BME280;47227;46.752;23.576;2024-01-16T10:06:07;95522.46;;;3.92;44.96
61357;BME280;47227;46.752;23.576;2024-01-16T10:08:39;95514.86;;;3.58;46.06
61357;BME280;47227;46.752;23.576;2024-01-16T10:11:08;95515.52;;;3.90;45.95
61357;BME280;47227;46.752;23.576;2024-01-16T10:13:37;95523.39;;;3.95;46.23
61357;BME280;47227;46.752;23.576;2024-01-16T10:16:06;95521.30;;;3.52;45.07
61357;BME280;47227;46.752;23.576;2024-01-16T10:18:35;95524.72;;;3.06;46.08
61357;BME280;47227;46.752;23.576;2024-01-16T10:21:20;95532.25;;;2.86;46.57
61357;BME280;47227;46.752;23.576;2024-01-16T10:23:50;95549.98;;;2.72;46.45
61357;BME280;47227;46.752;23.576;2024-01-16T10:26:21;95550.67;;;2.82;46.78
61357;BME280;47227;46.752;23.576;2024-01-16T10:28:49;95545.75;;;2.78;46.80
61357;BME280;47227;46.752;23.576;2024-01-16T10:31:17;95554.96;;;3.33;45.90
61357;BME280;47227;46.752;23.576;2024-01-16T10:33:46;95560.01;;;3.47;45.80
61357;BME280;47227;46.752;23.576;2024-01-16T10:36:16;95558.86;;;4.19;44.05
61357;BME280;47227;46.752;23.576;2024-01-16T10:38:45;95561.64;;;5.21;43.67
61357;BME280;47227;46.752;23.576;2024-01-16T10:41:16;95557.75;;;6.15;41.44
61357;BME280;47227;46.752;23.576;2024-01-16T10:44:06;95554.86;;;6.46;40.25
61357;BME280;47227;46.752;23.576;2024-01-16T10:46:35;95561.73;;;6.43;38.52
61357;BME280;47227;46.752;23.576;2024-01-16T10:49:05;95564.35;;;6.51;37.88
61357;BME280;47227;46.752;23.576;2024-01-16T10:51:34;95561.89;;;6.25;38.35
61357;BME280;47227;46.752;23.576;2024-01-16T10:54:05;95555.91;;;6.29;38.60
61357;BME280;47227;46.752;23.576;2024-01-16T10:56:36;95556.98;;;6.64;38.58
61357;BME280;47227;46.752;23.576;2024-01-16T11:01:55;95569.05;;;6.41;37.70
61357;BME280;47227;46.752;23.576;2024-01-16T11:04:27;95578.97;;;5.34;38.87
61357;BME280;47227;46.752;23.576;2024-01-16T11:06:57;95582.34;;;5.02;39.79
61357;BME280;47227;46.752;23.576;2024-01-16T11:09:25;95583.64;;;4.75;40.31
61357;BME280;47227;46.752;23.576;2024-01-16T11:11:55;95587.26;;;4.23;41.13
61357;BME280;47227;46.752;23.576;2024-01-16T11:14:26;95586.13;;;3.69;41.85
61357;BME280;47227;46.752;23.576;2024-01-16T11:16:57;95589.86;;;3.53;42.41
61357;BME280;47227;46.752;23.576;2024-01-16T11:19:31;95588.20;;;3.35;43.24
61357;BME280;47227;46.752;23.576;2024-01-16T11:22:05;95592.31;;;3.07;43.35
61357;BME280;47227;46.752;23.576;2024-01-16T11:24:34;95591.63;;;2.77;44.55
61357;BME280;47227;46.752;23.576;2024-01-16T11:27:03;95588.96;;;2.61;44.92
61357;BME280;47227;46.752;23.576;2024-01-16T11:32:01;95591.79;;;2.11;45.27
61357;BME280;47227;46.752;23.576;2024-01-16T11:34:52;95597.86;;;2.09;45.53
61357;BME280;47227;46.752;23.576;2024-01-16T11:37:30;95607.77;;;2.08;45.39
61357;BME280;47227;46.752;23.576;2024-01-16T11:42:54;95607.08;;;2.07;46.10
61357;BME280;47227;46.752;23.576;2024-01-16T11:48:12;95615.54;;;2.26;45.92
61357;BME280;47227;46.752;23.576;2024-01-16T11:50:42;95624.70;;;2.34;45.33
61357;BME280;47227;46.752;23.576;2024-01-16T11:53:35;95623.95;;;2.37;45.02
61357;BME280;47227;46.752;23.576;2024-01-16T11:56:26;95618.52;;;2.52;44.87
61357;BME280;47227;46.752;23.576;2024-01-16T12:01:57;95620.05;;;2.65;44.39
61357;BME280;47227;46.752;23.576;2024-01-16T12:04:30;95639.21;;;2.47;43.93
61357;BME280;47227;46.752;23.576;2024-01-16T12:06:59;95630.11;;;2.25;44.32
61357;BME280;47227;46.752;23.576;2024-01-16T12:09:29;95646.93;;;2.14;44.31
61357;BME280;47227;46.752;23.576;2024-01-16T12:12:02;95637.80;;;1.99;44.70
61357;BME280;47227;46.752;23.576;2024-01-16T12:14:31;95655.01;;;1.88;45.29
61357;BME280;47227;46.752;23.576;2024-01-16T12:17:13;95642.95;;;1.83;45.92
61357;BME280;47227;46.752;23.576;2024-01-16T12:19:42;95640.23;;;1.91;45.93
61357;BME280;47227;46.752;23.576;2024-01-16T12:22:15;95650.17;;;1.99;45.77
61357;BME280;47227;46.752;23.576;2024-01-16T12:24:55;95643.55;;;2.04;45.35
61357;BME280;47227;46.752;23.576;2024-01-16T12:27:24;95656.45;;;2.07;45.11
61357;BME280;47227;46.752;23.576;2024-01-16T12:30:05;95649.15;;;2.09;45.20
61357;BME280;47227;46.752;23.576;2024-01-16T12:32:35;95652.11;;;2.08;44.77
61357;BME280;47227;46.752;23.576;2024-01-16T12:35:04;95649.96;;;2.03;44.66
61357;BME280;47227;46.752;23.576;2024-01-16T12:37:33;95645.38;;;1.94;44.92
61357;BME280;47227;46.752;23.576;2024-01-16T12:40:03;95648.10;;;1.99;44.96
61357;BME280;47227;46.752;23.576;2024-01-16T12:42:34;95653.35;;;2.08;45.40
61357;BME280;47227;46.752;23.576;2024-01-16T12:45:08;95650.02;;;2.18;45.08
61357;BME280;47227;46.752;23.576;2024-01-16T12:47:37;95649.59;;;2.34;45.32
61357;BME280;47227;46.752;23.576;2024-01-16T12:50:06;95646.71;;;2.46;44.51
61357;BME280;47227;46.752;23.576;2024-01-16T12:52:35;95647.58;;;2.57;44.72
61357;BME280;47227;46.752;23.576;2024-01-16T12:55:03;95654.58;;;2.68;44.81
61357;BME280;47227;46.752;23.576;2024-01-16T12:57:33;95659.30;;;2.74;44.17
61357;BME280;47227;46.752;23.576;2024-01-16T13:00:21;95658.67;;;2.73;43.79
61357;BME280;47227;46.752;23.576;2024-01-16T13:02:50;95664.59;;;2.62;43.82
61357;BME280;47227;46.752;23.576;2024-01-16T13:05:19;95659.17;;;2.57;43.35
61357;BME280;47227;46.752;23.576;2024-01-16T13:08:00;95662.55;;;2.61;43.14
61357;BME280;47227;46.752;23.576;2024-01-16T13:10:31;95664.64;;;2.55;42.80
61357;BME280;47227;46.752;23.576;2024-01-16T13:15:41;95672.67;;;2.52;42.87
61357;BME280;47227;46.752;23.576;2024-01-16T13:18:20;95678.28;;;2.46;43.23
61357;BME280;47227;46.752;23.576;2024-01-16T13:20:50;95695.91;;;2.49;43.19
61357;BME280;47227;46.752;23.576;2024-01-16T13:23:20;95686.49;;;2.34;43.27
61357;BME280;47227;46.752;23.576;2024-01-16T13:25:49;95686.69;;;2.36;43.10